Time;durP1;ratioP1;P1;durP2;ratioP2;P2;SDS_P1;SDS_P2;PMS_P1;PMS_P2;Temp;Humidity;BMP_temperature;BMP_pressure;BME280_temperature;BME280_humidity;BME280_pressure;Samples;Min_cycle;Max_cycle;Signal;HPM_P1;HPM_P2
2021/06/09 00:00:50;;;;;;;8.70;7.90;;;22.60;90.50;30.30;99726.00;;;;5052181;28;20955;-71
2021/06/09 00:03:15;;;;;;;7.87;7.13;;;22.60;90.50;30.30;99722.00;;;;5051793;28;20912;-71
2021/06/09 00:05:41;;;;;;;7.63;6.93;;;22.60;90.50;30.20;99732.00;;;;5052020;28;20494;-71
2021/06/09 00:08:07;;;;;;;8.40;7.60;;;22.60;90.50;30.30;99728.00;;;;5062445;28;20305;-72
2021/06/09 00:10:33;;;;;;;7.93;7.13;;;22.60;90.50;30.30;99721.00;;;;5054389;28;20294;-71
2021/06/09 00:12:59;;;;;;;7.80;7.00;;;22.60;90.50;30.20;99714.00;;;;5055513;28;20226;-71
2021/06/09 00:15:25;;;;;;;8.20;7.40;;;22.60;90.50;30.20;99725.00;;;;5055037;28;20444;-71
2021/06/09 00:17:51;;;;;;;8.00;7.20;;;22.60;90.50;30.20;99718.00;;;;5038556;28;20453;-70
2021/06/09 00:20:20;;;;;;;8.17;7.37;;;22.50;90.40;30.30;99731.00;;;;5072078;28;20425;-72
2021/06/09 00:22:46;;;;;;;8.67;7.77;;;22.60;90.50;30.20;99715.00;;;;5072530;28;20190;-72
2021/06/09 00:25:16;;;;;;;8.37;7.57;;;22.50;90.80;30.20;99723.00;;;;5071390;28;20440;-71
2021/06/09 00:27:43;;;;;;;8.17;7.37;;;22.50;90.40;30.10;99725.00;;;;5072660;28;20931;-72
2021/06/09 00:30:09;;;;;;;8.30;7.50;;;22.50;90.40;30.20;99712.00;;;;5072377;28;20508;-71
2021/06/09 00:32:35;;;;;;;7.90;7.00;;;22.50;90.40;30.20;99731.00;;;;5054822;28;20868;-71
2021/06/09 00:35:01;;;;;;;8.20;7.40;;;22.50;90.40;30.20;99736.00;;;;5071892;28;20523;-71
2021/06/09 00:37:27;;;;;;;7.87;7.10;;;22.50;90.40;30.20;99724.00;;;;5053539;28;20202;-71
2021/06/09 00:39:52;;;;;;;8.07;7.10;;;22.50;90.50;30.20;99706.00;;;;5073039;28;20273;-71
2021/06/09 09:23:49;;;;;;;6.67;5.27;;;22.10;90.60;29.70;99755.00;;;;5044670;28;20480;-73
2021/06/09 09:26:30;;;;;;;7.17;6.20;;;22.10;90.60;29.70;99748.00;;;;5053739;28;20471;-73
2021/06/09 09:29:23;;;;;;;6.40;5.10;;;22.10;90.60;29.80;99758.00;;;;5053741;28;20436;-73
2021/06/09 09:31:56;;;;;;;6.03;5.30;;;22.10;90.60;29.70;99752.00;;;;5068273;28;20452;-72
2021/06/09 09:34:46;;;;;;;6.23;5.63;;;22.10;90.60;29.80;99751.00;;;;5070128;28;20929;-72
2021/06/09 09:37:14;;;;;;;6.40;5.50;;;22.10;90.60;30.00;99755.00;;;;5053875;28;20463;-73
2021/06/09 09:39:44;;;;;;;6.10;5.50;;;22.10;90.60;29.70;99753.00;;;;5035722;28;20432;-72
2021/06/09 09:42:34;;;;;;;6.10;5.50;;;22.10;90.60;29.90;99756.00;;;;5053973;28;20810;-72
2021/06/09 09:45:21;;;;;;;6.00;5.03;;;22.10;90.50;29.90;99746.00;;;;5052724;28;20439;-72
2021/06/09 09:48:11;;;;;;;6.30;5.70;;;22.10;90.60;30.00;99768.00;;;;5070859;28;20475;-74
2021/06/09 09:50:46;;;;;;;5.77;5.10;;;22.10;90.60;29.90;99751.00;;;;5071204;28;20459;-72
2021/06/09 09:53:23;;;;;;;6.20;5.30;;;22.10;90.60;30.00;99749.00;;;;5053085;28;20494;-72
2021/06/09 09:56:05;;;;;;;6.27;5.60;;;22.10;90.60;30.10;99764.00;;;;5054677;28;20455;-72
2021/06/09 09:58:34;;;;;;;6.23;5.60;;;22.10;90.60;30.00;99758.00;;;;5068693;28;20443;-72
2021/06/09 10:01:11;;;;;;;6.17;5.43;;;22.10;90.60;29.90;99760.00;;;;5052507;28;20477;-72
2021/06/09 10:03:39;;;;;;;7.10;5.70;;;22.10;90.50;30.00;99751.00;;;;5052749;28;20440;-72
2021/06/09 10:06:32;;;;;;;6.40;5.77;;;22.10;90.50;30.00;99768.00;;;;5052496;28;20529;-72
2021/06/09 10:09:10;;;;;;;6.57;5.30;;;22.10;90.50;29.80;99753.00;;;;5070156;28;20705;-72
2021/06/09 10:11:42;;;;;;;5.67;4.97;;;22.10;90.50;30.20;99764.00;;;;5069287;28;20489;-73
2021/06/09 10:14:52;;;;;;;6.00;5.10;;;22.10;90.50;30.10;99757.00;;;;5067672;28;20432;-73
2021/06/09 10:17:29;;;;;;;6.00;5.20;;;22.10;90.50;30.10;99758.00;;;;5055891;28;20980;-72
2021/06/09 10:19:59;;;;;;;5.83;5.20;;;22.10;90.50;30.10;99754.00;;;;5053113;28;20435;-72
2021/06/09 10:22:28;;;;;;;5.97;5.37;;;22.10;90.50;30.10;99758.00;;;;5052465;28;20451;-72
2021/06/09 10:25:11;;;;;;;6.20;5.43;;;22.10;90.50;30.20;99757.00;;;;5068528;28;21061;-72
2021/06/09 10:27:51;;;;;;;6.13;5.10;;;22.10;90.50;30.20;99744.00;;;;5068306;28;20976;-74
2021/06/09 10:30:16;;;;;;;8.10;5.57;;;22.10;90.50;30.20;99747.00;;;;5052558;28;20502;-73
2021/06/09 10:32:48;;;;;;;6.30;5.20;;;22.10;90.50;30.10;99731.00;;;;5069305;28;20532;-74
2021/06/09 10:35:17;;;;;;;6.40;5.67;;;22.10;90.50;30.10;99746.00;;;;5068277;28;20190;-73
2021/06/09 10:37:47;;;;;;;6.13;5.27;;;22.10;90.50;30.20;99744.00;;;;5036361;28;20501;-73
2021/06/09 10:40:16;;;;;;;6.43;5.70;;;22.20;90.60;30.10;99753.00;;;;5018791;28;20937;-72
2021/06/09 10:42:42;;;;;;;5.83;4.63;;;22.10;90.50;30.10;99737.00;;;;5051877;28;20439;-73
2021/06/09 10:45:10;;;;;;;6.17;5.57;;;22.20;90.50;30.10;99736.00;;;;5018012;28;20534;-72
2021/06/09 10:47:36;;;;;;;5.90;5.30;;;22.10;90.50;30.10;99748.00;;;;5035095;28;20478;-72
2021/06/09 10:50:05;;;;;;;5.73;5.03;;;22.20;90.50;30.20;99749.00;;;;5018932;28;20523;-73
2021/06/09 10:52:31;;;;;;;6.20;4.83;;;22.20;90.50;30.20;99726.00;;;;5068084;28;20259;-72
2021/06/09 10:54:57;;;;;;;5.83;5.23;;;22.20;90.50;30.20;99745.00;;;;5051013;28;20436;-73
2021/06/09 10:57:23;;;;;;;6.40;5.40;;;22.20;90.60;30.10;99744.00;;;;5018406;28;20488;-73
2021/06/09 10:59:48;;;;;;;5.70;5.00;;;22.20;90.50;30.20;99733.00;;;;5068118;28;20193;-73
2021/06/09 11:02:20;;;;;;;5.90;5.10;;;22.20;90.50;30.10;99737.00;;;;5034297;28;20745;-73
2021/06/09 11:04:52;;;;;;;6.57;5.47;;;22.20;90.60;30.30;99742.00;;;;5035390;28;20182;-73
2021/06/09 11:07:34;;;;;;;6.17;5.57;;;22.20;90.50;30.20;99740.00;;;;5036235;28;20572;-73
2021/06/09 11:10:05;;;;;;;5.93;4.73;;;22.20;90.50;30.30;99724.00;;;;5067633;28;20492;-73
2021/06/09 11:12:38;;;;;;;6.17;5.40;;;22.20;90.50;30.20;99720.00;;;;5067935;28;20481;-73
2021/06/09 11:15:30;;;;;;;6.10;5.23;;;22.20;90.50;30.20;99711.00;;;;5067916;28;20440;-73
2021/06/09 11:17:57;;;;;;;5.70;5.03;;;22.20;90.50;30.10;99710.00;;;;5053931;28;20432;-73
2021/06/09 11:20:37;;;;;;;5.87;5.13;;;22.20;90.50;30.20;99708.00;;;;5051570;28;20461;-73
2021/06/09 11:23:10;;;;;;;5.87;5.03;;;22.20;90.50;30.20;99715.00;;;;5035714;28;20454;-74
2021/06/09 11:25:38;;;;;;;5.13;4.63;;;22.20;90.50;30.40;99702.00;;;;5050818;28;20488;-73
2021/06/09 11:28:12;;;;;;;5.90;5.30;;;22.20;90.50;30.40;99712.00;;;;5068270;28;20479;-74
2021/06/09 11:31:09;;;;;;;5.83;5.20;;;22.30;90.60;30.30;99703.00;;;;5067452;28;20447;-73
2021/06/09 11:33:50;;;;;;;6.67;5.10;;;22.20;90.50;30.40;99701.00;;;;5068272;28;20810;-73
2021/06/09 11:36:19;;;;;;;7.40;4.97;;;22.30;90.60;30.40;99705.00;;;;5074613;28;20466;-73
2021/06/09 11:38:46;;;;;;;6.23;5.50;;;22.30;90.60;30.40;99702.00;;;;5075290;28;20464;-73
2021/06/09 11:41:14;;;;;;;7.10;5.33;;;22.30;90.60;30.40;99687.00;;;;5074962;28;20451;-74
2021/06/09 11:43:55;;;;;;;5.83;5.00;;;22.30;90.60;30.40;99693.00;;;;5074271;28;20493;-73
2021/06/09 11:46:31;;;;;;;5.53;4.70;;;22.30;90.50;30.40;99692.00;;;;5057839;28;20475;-73
2021/06/09 11:49:05;;;;;;;5.53;4.63;;;22.30;90.60;30.40;99688.00;;;;5075190;28;20436;-73
2021/06/09 11:51:58;;;;;;;6.00;5.03;;;22.30;90.50;30.40;99672.00;;;;5074325;28;20995;-73
2021/06/09 11:54:29;;;;;;;5.43;4.80;;;22.30;90.50;30.50;99678.00;;;;5074908;28;20485;-74
2021/06/09 11:56:58;;;;;;;5.87;4.93;;;22.30;90.50;30.60;99677.00;;;;5058800;28;20500;-74
2021/06/09 11:59:38;;;;;;;6.13;5.10;;;22.30;90.50;30.60;99666.00;;;;5058195;28;20448;-73
2021/06/09 12:02:09;;;;;;;6.00;4.67;;;22.30;90.60;30.70;99677.00;;;;5074459;28;20470;-73
2021/06/09 12:04:42;;;;;;;5.53;4.70;;;22.30;90.50;30.60;99658.00;;;;5074822;28;20522;-73
2021/06/09 12:07:11;;;;;;;5.70;4.83;;;22.30;90.60;30.50;99656.00;;;;5058750;28;20568;-73
2021/06/09 12:09:42;;;;;;;5.93;4.40;;;22.30;90.50;30.60;99660.00;;;;5058287;28;20441;-72
2021/06/09 12:12:11;;;;;;;6.40;5.57;;;22.40;90.60;30.60;99658.00;;;;5058133;28;20975;-73
2021/06/09 12:14:38;;;;;;;6.10;5.17;;;22.40;90.60;30.60;99652.00;;;;5074934;28;21016;-73
2021/06/09 12:17:10;;;;;;;6.30;5.37;;;22.40;90.60;30.60;99655.00;;;;5074463;28;20462;-73
2021/06/09 12:19:38;;;;;;;6.20;5.20;;;22.40;90.60;30.70;99651.00;;;;5074277;28;20467;-74
2021/06/09 12:22:16;;;;;;;5.90;4.80;;;22.40;90.50;30.60;99646.00;;;;5058395;28;20460;-73
2021/06/09 12:24:42;;;;;;;5.87;5.00;;;22.40;90.50;30.70;99653.00;;;;5074851;28;20467;-73
2021/06/09 12:27:11;;;;;;;5.63;4.90;;;22.40;90.50;30.80;99654.00;;;;5057055;28;20483;-74
2021/06/09 12:29:40;;;;;;;5.70;4.93;;;22.40;90.50;30.80;99639.00;;;;5058049;28;20511;-74
2021/06/09 12:32:26;;;;;;;5.60;4.77;;;22.40;90.50;30.80;99643.00;;;;5041566;28;20491;-73
2021/06/09 12:35:14;;;;;;;6.00;4.97;;;22.50;90.60;30.80;99643.00;;;;5058949;28;20440;-74
2021/06/09 12:37:52;;;;;;;5.13;4.53;;;22.40;90.50;30.80;99644.00;;;;5074438;28;20471;-74
2021/06/09 12:40:25;;;;;;;6.83;5.23;;;22.50;90.60;30.80;99640.00;;;;5074122;28;20444;-73
2021/06/09 12:42:54;;;;;;;6.43;5.63;;;22.50;90.60;30.80;99644.00;;;;5052781;28;20964;-74
2021/06/09 12:45:21;;;;;;;5.70;5.00;;;22.50;90.60;30.80;99633.00;;;;5036826;28;21065;-74
2021/06/09 12:47:47;;;;;;;6.23;5.27;;;22.50;90.60;30.80;99630.00;;;;5058111;28;20475;-74
2021/06/09 12:50:35;;;;;;;5.87;5.10;;;22.50;90.60;30.70;99621.00;;;;5054416;28;20840;-73
2021/06/09 12:53:04;;;;;;;5.60;4.83;;;22.60;90.60;30.90;99624.00;;;;5070568;28;20460;-75
2021/06/09 12:55:35;;;;;;;5.90;5.30;;;22.60;90.60;31.00;99619.00;;;;5053700;28;20950;-73
2021/06/09 12:58:04;;;;;;;5.30;4.50;;;22.60;90.60;30.90;99619.00;;;;5070864;28;20472;-74
2021/06/09 13:00:33;;;;;;;5.53;4.93;;;22.60;90.60;31.00;99620.00;;;;5034301;28;20823;-74
2021/06/09 13:03:18;;;;;;;5.77;4.70;;;22.60;90.60;30.90;99627.00;;;;5051387;28;20439;-74
2021/06/09 13:06:00;;;;;;;5.57;4.93;;;22.60;90.60;30.90;99607.00;;;;5050861;28;20466;-75
2021/06/09 13:08:32;;;;;;;5.30;4.47;;;22.60;90.60;31.00;99625.00;;;;5049770;28;20446;-75
2021/06/09 13:11:21;;;;;;;5.53;4.70;;;22.60;90.60;31.00;99613.00;;;;5050893;28;20457;-74
2021/06/09 13:13:57;;;;;;;5.57;4.73;;;22.60;90.60;30.90;99621.00;;;;5052707;28;20441;-74
2021/06/09 13:16:31;;;;;;;6.40;4.80;;;22.60;90.60;30.90;99618.00;;;;5049831;28;20466;-74
2021/06/09 13:19:09;;;;;;;6.00;4.67;;;22.70;90.60;31.10;99604.00;;;;5051238;28;20473;-74
2021/06/09 13:21:44;;;;;;;5.77;4.80;;;22.70;90.60;31.10;99618.00;;;;5050171;28;20460;-76
2021/06/09 13:24:34;;;;;;;5.50;4.73;;;22.70;90.60;30.90;99615.00;;;;5050642;28;21025;-75
2021/06/09 13:27:06;;;;;;;5.70;4.77;;;22.70;90.60;31.00;99605.00;;;;5051911;28;20750;-73
2021/06/09 13:29:54;;;;;;;5.90;4.80;;;22.70;91.00;30.90;99607.00;;;;5050207;28;20928;-75
2021/06/09 13:32:30;;;;;;;5.37;4.50;;;22.70;90.60;31.10;99599.00;;;;5052965;28;20489;-74
2021/06/09 13:35:04;;;;;;;5.60;4.80;;;22.70;90.60;31.10;99605.00;;;;5051061;28;20465;-74
2021/06/09 13:37:44;;;;;;;6.93;4.93;;;22.80;90.60;31.10;99615.00;;;;5050080;28;20461;-73
2021/06/09 13:40:24;;;;;;;5.90;5.00;;;22.80;90.60;31.10;99601.00;;;;5051879;28;20852;-74
2021/06/09 13:43:08;;;;;;;6.00;5.20;;;22.80;90.60;31.20;99595.00;;;;5050770;28;20437;-74
2021/06/09 13:45:49;;;;;;;5.50;4.70;;;22.90;90.70;31.30;99591.00;;;;5050792;28;20733;-75
2021/06/09 13:48:19;;;;;;;4.90;4.27;;;22.90;90.70;31.40;99586.00;;;;5050213;28;20481;-74
2021/06/09 13:51:06;;;;;;;5.93;5.20;;;22.90;90.60;31.40;99589.00;;;;5033493;28;20875;-74
2021/06/09 13:53:55;;;;;;;5.60;4.40;;;22.90;90.60;31.30;99592.00;;;;5050186;28;20525;-74
2021/06/09 13:56:35;;;;;;;5.10;4.23;;;22.90;90.60;31.30;99582.00;;;;5052961;28;20963;-75
2021/06/09 13:59:18;;;;;;;5.70;4.93;;;22.90;90.60;31.40;99591.00;;;;5049205;28;20449;-74
2021/06/09 14:01:45;;;;;;;5.20;3.80;;;23.00;90.70;31.40;99582.00;;;;5051679;28;20541;-74
2021/06/09 14:04:15;;;;;;;5.40;4.13;;;23.00;90.70;31.50;99587.00;;;;5049478;28;20434;-74
2021/06/09 14:06:41;;;;;;;5.67;4.60;;;23.00;90.70;31.50;99585.00;;;;5050261;28;20998;-74
2021/06/09 14:09:13;;;;;;;5.70;4.50;;;23.00;90.70;31.50;99582.00;;;;5050171;28;20438;-74
2021/06/09 14:12:08;;;;;;;5.70;4.87;;;23.00;90.60;31.50;99580.00;;;;5049825;28;20477;-75
2021/06/09 14:14:37;;;;;;;5.50;4.80;;;23.10;90.70;31.50;99580.00;;;;5050971;28;20928;-74
2021/06/09 14:17:09;;;;;;;5.50;4.60;;;23.00;90.70;31.50;99589.00;;;;5050150;28;20456;-74
2021/06/09 14:19:37;;;;;;;5.70;4.47;;;23.10;90.70;31.50;99571.00;;;;5049031;28;20793;-74
2021/06/09 14:22:04;;;;;;;5.50;4.90;;;23.10;90.70;31.50;99576.00;;;;5050300;28;20458;-74
2021/06/09 14:24:30;;;;;;;5.83;5.07;;;23.10;90.90;31.60;99567.00;;;;5032373;28;20896;-74
2021/06/09 14:26:57;;;;;;;5.57;4.80;;;23.10;90.70;31.60;99572.00;;;;5049309;28;20511;-73
2021/06/09 14:29:22;;;;;;;5.90;4.80;;;23.10;90.70;31.60;99569.00;;;;5049373;28;20175;-74
2021/06/09 14:31:48;;;;;;;5.30;4.60;;;23.10;90.70;31.70;99567.00;;;;5048492;28;20481;-73
2021/06/09 14:37:12;;;;;;;5.83;4.33;;;23.20;90.70;31.70;99573.00;;;;5049927;28;20459;-74
2021/06/09 14:39:38;;;;;;;5.30;4.60;;;23.20;90.70;31.70;99573.00;;;;5048751;28;20442;-76
2021/06/09 14:42:04;;;;;;;5.77;4.47;;;23.30;90.70;31.80;99566.00;;;;5032761;28;20455;-74
2021/06/09 14:44:46;;;;;;;5.40;4.50;;;23.30;90.70;31.80;99550.00;;;;5032430;28;20649;-74
2021/06/09 14:47:40;;;;;;;5.50;4.57;;;23.30;90.70;31.80;99562.00;;;;5034314;28;21048;-74
2021/06/09 14:50:06;;;;;;;6.10;5.00;;;23.30;90.70;31.80;99555.00;;;;5049428;28;20526;-75
2021/06/09 14:52:38;;;;;;;6.00;4.83;;;23.30;90.70;31.80;99553.00;;;;5065193;28;20463;-74
2021/06/09 14:55:11;;;;;;;5.20;4.30;;;23.30;90.70;31.80;99547.00;;;;5048654;28;20443;-73
2021/06/09 14:57:37;;;;;;;4.80;3.80;;;23.30;90.70;31.80;99542.00;;;;5049174;28;21019;-74
2021/06/09 15:00:15;;;;;;;6.00;4.83;;;23.40;90.80;31.80;99563.00;;;;5048724;28;20435;-74
2021/06/09 15:02:41;;;;;;;5.70;4.30;;;23.40;90.80;31.80;99553.00;;;;5049837;28;20540;-74
2021/06/09 15:05:12;;;;;;;5.37;4.30;;;23.40;90.80;31.80;99547.00;;;;5032029;28;20439;-74
2021/06/09 15:07:38;;;;;;;5.70;5.00;;;23.40;90.80;31.80;99567.00;;;;5032534;28;20478;-74
2021/06/09 15:10:05;;;;;;;5.30;4.60;;;23.40;90.80;31.80;99547.00;;;;5047796;28;20798;-80
2021/06/09 15:12:31;;;;;;;5.80;4.63;;;23.40;90.80;31.90;99549.00;;;;5048849;28;20474;-80
2021/06/09 15:14:57;;;;;;;5.50;4.80;;;23.40;90.80;31.90;99548.00;;;;5031301;28;20439;-79
2021/06/09 15:17:24;;;;;;;5.27;4.17;;;23.40;90.70;32.00;99555.00;;;;5048225;28;20197;-80
2021/06/09 15:19:50;;;;;;;5.33;4.37;;;23.50;90.80;32.00;99539.00;;;;5048641;28;20777;-80
2021/06/09 15:22:17;;;;;;;5.13;4.50;;;23.50;90.80;32.00;99543.00;;;;5047158;28;20499;-80
2021/06/09 15:24:43;;;;;;;6.23;4.97;;;23.50;90.80;32.00;99554.00;;;;5046665;28;20464;-80
2021/06/09 15:27:09;;;;;;;5.37;4.60;;;23.50;90.80;32.00;99568.00;;;;5046807;28;20486;-81
2021/06/09 15:29:35;;;;;;;6.23;4.60;;;23.60;90.80;32.00;99545.00;;;;5046945;28;20184;-79
2021/06/09 15:32:01;;;;;;;5.17;4.13;;;23.60;90.80;32.10;99556.00;;;;5046986;28;20201;-81
2021/06/09 15:34:27;;;;;;;5.47;4.63;;;23.60;90.80;32.10;99556.00;;;;5030505;28;20200;-80
2021/06/09 15:36:53;;;;;;;5.00;4.20;;;23.60;90.80;32.10;99541.00;;;;5031016;28;20310;-81
2021/06/09 15:39:22;;;;;;;5.07;3.83;;;23.60;90.80;32.20;99548.00;;;;5048417;28;20550;-78
2021/06/09 15:41:49;;;;;;;5.63;5.03;;;23.60;91.10;32.20;99556.00;;;;5048533;28;20199;-80
2021/06/09 15:44:15;;;;;;;5.77;4.93;;;23.70;90.90;32.20;99552.00;;;;5047441;28;20444;-80
2021/06/09 15:46:42;;;;;;;6.93;6.20;;;23.70;90.40;32.10;99566.00;;;;5048439;28;20995;-79
2021/06/09 15:49:09;;;;;;;6.70;5.80;;;23.70;89.80;32.10;99562.00;;;;5048387;28;20428;-79
2021/06/09 15:51:35;;;;;;;7.17;6.33;;;23.80;89.10;32.30;99557.00;;;;5048357;28;20541;-79
2021/06/09 15:54:01;;;;;;;7.90;6.70;;;23.80;88.00;32.20;99544.00;;;;5048715;28;20539;-79
2021/06/09 15:56:27;;;;;;;7.07;6.30;;;23.90;87.40;32.10;99551.00;;;;5047549;28;20463;-78
2021/06/09 15:58:52;;;;;;;9.60;7.53;;;23.90;86.80;32.20;99551.00;;;;5048141;28;20193;-78
2021/06/09 16:01:18;;;;;;;8.83;6.80;;;23.90;86.30;32.30;99553.00;;;;5049497;28;20256;-78
2021/06/09 16:03:44;;;;;;;10.10;7.77;;;23.90;85.90;32.30;99553.00;;;;5049809;28;20187;-79
2021/06/09 16:06:10;;;;;;;9.00;7.33;;;23.90;85.80;32.30;99556.00;;;;5048974;28;20464;-80
2021/06/09 16:08:35;;;;;;;8.17;7.37;;;24.00;85.90;32.30;99563.00;;;;5049244;28;20269;-79
2021/06/09 16:11:01;;;;;;;13.00;7.87;;;24.00;85.60;32.40;99548.00;;;;5049198;28;20205;-79
2021/06/09 16:13:27;;;;;;;11.37;7.73;;;24.00;85.60;32.40;99547.00;;;;5047594;28;20186;-79
2021/06/09 16:15:55;;;;;;;8.83;8.03;;;24.00;85.40;32.30;99556.00;;;;5047687;28;20463;-79
2021/06/09 16:18:24;;;;;;;9.10;7.63;;;24.00;85.20;32.30;99552.00;;;;5047262;28;20474;-80
2021/06/09 16:20:53;;;;;;;7.70;6.70;;;24.00;84.50;32.40;99538.00;;;;5049564;28;20538;-80
2021/06/09 16:23:21;;;;;;;9.13;7.00;;;24.00;84.20;32.40;99508.00;;;;5052055;28;20459;-79
2021/06/09 16:25:47;;;;;;;9.60;8.03;;;24.00;83.90;32.40;99480.00;;;;5034563;28;20846;-81
2021/06/09 16:28:13;;;;;;;8.60;7.73;;;24.00;83.50;32.40;99482.00;;;;5035042;28;20475;-79
2021/06/09 16:30:39;;;;;;;9.10;7.50;;;24.00;83.20;32.30;99503.00;;;;5051423;28;20479;-80
2021/06/09 16:33:05;;;;;;;9.37;7.70;;;24.00;82.80;32.20;99560.00;;;;5033152;28;20443;-80
2021/06/09 16:35:32;;;;;;;9.60;8.37;;;24.00;82.90;32.10;99460.00;;;;5031990;28;20790;-80
2021/06/09 16:37:58;;;;;;;9.60;8.53;;;24.10;83.00;32.30;99442.00;;;;5034727;28;20439;-79
2021/06/09 16:40:26;;;;;;;9.07;7.93;;;24.00;82.60;32.30;99480.00;;;;5037147;28;20534;-80
2021/06/09 16:42:53;;;;;;;8.60;7.80;;;24.00;82.60;32.20;99578.00;;;;5037923;28;20439;-82
2021/06/09 16:45:24;;;;;;;8.90;7.50;;;24.00;82.70;32.30;99478.00;;;;5053813;28;20854;-81
2021/06/09 16:47:57;;;;;;;9.20;8.23;;;24.00;82.70;32.20;99491.00;;;;5037646;28;20855;-82
2021/06/09 16:50:23;;;;;;;8.80;7.90;;;24.00;82.50;32.30;99501.00;;;;5036299;28;20552;-82
2021/06/09 16:52:49;;;;;;;9.67;8.73;;;24.00;82.60;32.30;99454.00;;;;5037509;28;20524;-82
2021/06/09 16:55:27;;;;;;;9.07;7.37;;;24.00;82.50;32.40;99473.00;;;;5020715;28;20516;-81
2021/06/09 17:00:39;;;;;;;9.50;8.00;;;24.00;82.60;32.20;99465.00;;;;5041792;28;20459;-80
2021/06/09 17:03:06;;;;;;;8.77;7.97;;;24.00;82.60;32.30;99482.00;;;;5037670;28;20486;-79
2021/06/09 17:05:32;;;;;;;9.00;7.63;;;24.00;82.60;32.30;99510.00;;;;5020305;28;20458;-81
2021/06/09 17:07:58;;;;;;;9.80;8.50;;;24.00;82.10;32.30;99488.00;;;;5036865;28;20477;-80
2021/06/09 17:10:27;;;;;;;8.77;7.80;;;24.00;82.50;32.10;99497.00;;;;5037398;28;20435;-81
2021/06/09 17:12:56;;;;;;;8.50;7.70;;;24.00;82.80;32.20;99516.00;;;;5020579;28;20486;-83
2021/06/09 17:15:25;;;;;;;9.07;8.17;;;24.00;82.90;31.80;99501.00;;;;5020974;28;20537;-82
2021/06/09 17:17:51;;;;;;;8.90;8.00;;;24.00;83.10;32.30;99491.00;;;;5037070;28;20449;-81
2021/06/09 17:20:17;;;;;;;9.50;7.77;;;24.00;83.30;32.30;99588.00;;;;5069462;28;20917;-80
2021/06/09 17:22:42;;;;;;;8.77;7.87;;;24.00;83.50;32.30;99595.00;;;;5070122;28;20187;-80
2021/06/09 17:25:09;;;;;;;8.17;7.30;;;23.90;83.50;32.30;99583.00;;;;5036763;28;20255;-83
2021/06/09 17:27:35;;;;;;;8.17;7.40;;;23.90;83.70;32.20;99594.00;;;;5069075;28;20279;-78
2021/06/09 17:30:01;;;;;;;8.80;7.90;;;23.90;83.80;32.20;99592.00;;;;5069437;28;20952;-79
2021/06/09 17:32:26;;;;;;;8.27;7.43;;;23.90;84.00;32.20;99585.00;;;;5035702;28;20208;-79
2021/06/09 17:34:52;;;;;;;7.43;6.63;;;23.90;84.20;32.20;99586.00;;;;5052122;28;20313;-80
2021/06/09 17:37:18;;;;;;;8.70;7.60;;;23.90;84.30;32.20;99596.00;;;;5070242;28;20209;-80
2021/06/09 17:39:47;;;;;;;8.23;7.33;;;23.90;84.40;32.20;99598.00;;;;5071766;28;20184;-80
2021/06/09 17:42:13;;;;;;;8.77;7.97;;;23.90;84.50;32.20;99598.00;;;;5037382;28;20285;-79
2021/06/09 17:44:38;;;;;;;9.27;7.70;;;23.90;84.60;32.10;99598.00;;;;5071685;28;20438;-80
2021/06/09 17:47:04;;;;;;;8.30;7.50;;;23.90;84.70;32.10;99601.00;;;;5070276;28;20836;-80
2021/06/09 17:49:31;;;;;;;8.57;7.77;;;23.90;84.90;31.90;99603.00;;;;5069774;28;20213;-79
2021/06/09 17:51:58;;;;;;;8.87;7.53;;;23.90;84.90;32.00;99601.00;;;;5053698;28;20203;-80
2021/06/09 17:54:23;;;;;;;8.00;7.20;;;23.90;85.00;32.10;99602.00;;;;5053489;28;20482;-79
2021/06/09 17:56:50;;;;;;;8.70;7.80;;;23.90;85.20;32.10;99606.00;;;;5070614;28;20497;-80
2021/06/09 17:59:17;;;;;;;7.30;6.60;;;23.90;85.30;32.10;99607.00;;;;5053780;28;20306;-80
2021/06/09 18:01:55;;;;;;;8.33;6.77;;;23.90;85.40;32.10;99588.00;;;;5071662;28;20460;-80
2021/06/09 18:04:21;;;;;;;8.03;7.23;;;23.90;85.50;32.10;99594.00;;;;5054925;28;20406;-80
2021/06/09 18:06:46;;;;;;;8.57;7.77;;;23.80;85.40;32.10;99614.00;;;;5069595;28;20565;-80
2021/06/09 18:09:12;;;;;;;8.30;7.50;;;23.80;85.50;32.10;99617.00;;;;5053469;28;20207;-79
2021/06/09 18:11:38;;;;;;;8.17;7.37;;;23.90;85.70;32.00;99613.00;;;;5069359;28;20207;-80
2021/06/09 18:14:04;;;;;;;8.33;7.17;;;23.80;85.60;32.00;99610.00;;;;5070147;28;20181;-79
2021/06/09 18:16:30;;;;;;;9.00;7.67;;;23.80;85.70;32.10;99601.00;;;;5036175;28;20249;-80
2021/06/09 18:18:56;;;;;;;8.43;7.53;;;23.80;85.80;32.00;99603.00;;;;5052393;28;20203;-79
2021/06/09 18:21:21;;;;;;;8.10;6.97;;;23.80;85.80;32.00;99615.00;;;;5069773;28;20943;-80
2021/06/09 18:23:48;;;;;;;7.40;6.57;;;23.80;85.90;31.90;99617.00;;;;5069554;28;20701;-80
2021/06/09 18:26:13;;;;;;;8.00;6.90;;;23.80;86.00;31.90;99605.00;;;;5070392;28;20199;-80
2021/06/09 18:28:40;;;;;;;7.97;7.00;;;23.80;86.10;31.80;99613.00;;;;5053141;28;20465;-79
2021/06/09 18:31:06;;;;;;;7.60;6.80;;;23.80;86.10;31.80;99605.00;;;;5019614;28;20232;-80
2021/06/09 18:33:31;;;;;;;7.03;6.33;;;23.80;86.10;31.90;99618.00;;;;5019295;28;20442;-80
2021/06/09 18:35:57;;;;;;;8.50;6.97;;;23.70;86.10;31.90;99621.00;;;;5052984;28;20919;-80
2021/06/09 18:38:25;;;;;;;7.63;6.83;;;23.70;86.00;31.90;99618.00;;;;5052843;28;20186;-80
2021/06/09 18:40:51;;;;;;;7.80;7.00;;;23.70;86.00;31.80;99621.00;;;;5069051;28;20819;-80
2021/06/09 18:43:17;;;;;;;7.40;6.60;;;23.70;86.10;31.70;99621.00;;;;5069570;28;20437;-78
2021/06/09 18:45:43;;;;;;;7.27;6.57;;;23.70;86.10;31.70;99636.00;;;;5052077;28;20462;-79
2021/06/09 18:48:10;;;;;;;7.60;6.90;;;23.70;86.00;31.80;99634.00;;;;5035746;28;20478;-80
2021/06/09 18:50:36;;;;;;;7.80;7.00;;;23.70;86.10;31.70;99640.00;;;;5069151;28;20457;-79
2021/06/09 18:53:02;;;;;;;8.43;7.60;;;23.70;86.00;31.70;99636.00;;;;5035551;28;20484;-78
2021/06/09 18:55:29;;;;;;;7.90;7.10;;;23.70;86.00;31.50;99643.00;;;;5052826;28;20433;-79
2021/06/09 18:57:56;;;;;;;7.60;6.80;;;23.70;86.00;31.70;99651.00;;;;5052192;28;20183;-79
2021/06/09 19:00:25;;;;;;;9.37;7.23;;;23.70;86.00;31.70;99643.00;;;;5052212;28;20523;-80
2021/06/09 19:02:50;;;;;;;9.03;7.20;;;23.70;85.90;31.50;99647.00;;;;5070482;28;20441;-79
2021/06/09 19:05:17;;;;;;;7.80;6.20;;;23.70;85.90;31.60;99652.00;;;;5052084;28;20461;-80
2021/06/09 19:07:52;;;;;;;7.53;6.80;;;23.70;86.80;31.60;99651.00;;;;5069688;28;20593;-79
2021/06/09 19:10:20;;;;;;;7.03;6.33;;;23.70;85.90;31.50;99664.00;;;;5035365;28;20446;-79
2021/06/09 19:12:46;;;;;;;7.63;6.70;;;23.70;86.00;31.60;99655.00;;;;5069748;28;20439;-79
2021/06/09 19:15:13;;;;;;;7.53;6.37;;;23.70;85.90;31.50;99667.00;;;;5051989;28;20756;-79
2021/06/09 19:17:44;;;;;;;7.40;6.23;;;23.70;85.90;31.50;99669.00;;;;5052559;28;20452;-79
2021/06/09 19:20:12;;;;;;;7.40;6.60;;;23.60;85.90;31.50;99672.00;;;;5021003;28;20499;-80
2021/06/09 19:22:37;;;;;;;6.80;6.10;;;23.70;86.10;31.40;99661.00;;;;5051792;28;20448;-79
2021/06/09 19:25:05;;;;;;;7.43;6.63;;;23.60;86.10;31.50;99678.00;;;;5052105;28;20482;-79
2021/06/09 19:27:31;;;;;;;6.97;6.27;;;23.60;86.20;31.40;99658.00;;;;5067940;28;20222;-80
2021/06/09 19:29:57;;;;;;;7.97;7.17;;;23.70;86.30;31.40;99677.00;;;;5051955;28;20445;-79
2021/06/09 19:32:23;;;;;;;7.50;6.70;;;23.60;86.30;31.50;99683.00;;;;5035457;28;20209;-78
2021/06/09 19:34:49;;;;;;;6.87;6.17;;;23.60;86.30;31.50;99684.00;;;;5068613;28;20444;-78
2021/06/09 19:37:18;;;;;;;7.10;6.40;;;23.60;86.30;31.50;99701.00;;;;5068419;28;20793;-78
2021/06/09 19:39:43;;;;;;;7.40;6.67;;;23.60;86.30;31.60;99703.00;;;;5052526;28;20198;-78
2021/06/09 19:42:10;;;;;;;7.20;6.50;;;23.60;86.30;31.50;99702.00;;;;5067638;28;20457;-78
2021/06/09 19:44:38;;;;;;;8.00;6.10;;;23.60;86.40;31.50;99705.00;;;;5051986;28;20247;-77
2021/06/09 19:47:04;;;;;;;7.40;6.70;;;23.60;86.50;31.50;99709.00;;;;5068354;28;20563;-79
2021/06/09 19:49:30;;;;;;;7.83;6.70;;;23.60;86.50;31.50;99715.00;;;;5068311;28;20459;-77
2021/06/09 19:51:56;;;;;;;7.00;6.20;;;23.60;86.50;31.40;99711.00;;;;5068602;28;20950;-79
2021/06/09 19:54:23;;;;;;;7.13;6.43;;;23.60;86.60;31.50;99717.00;;;;5068143;28;20278;-79
2021/06/09 19:56:49;;;;;;;7.40;6.60;;;23.60;86.60;31.50;99708.00;;;;5022414;28;20267;-79